Главная страница
METAR-TAF:

METAR-TAF

Аэропорты :

Санто-Пекоа

Луганвилл, Эспириту-Санто, Вануату

широта: 15-31S, долгота: 167-13E, высота над уровнем моря: 41 м

Текущие метеонаблюдения

Эта сводка был подготовлена 1 час и 55 минут назад, в 16:00 UTC
Ветер 7 Узел от восточно-юго-восточный
Температура 26°C
Влажность 79%
Давление 1015 hPa

METAR: NVSS 251600Z AUTO 12007KT //// // NCD 26/22 Q1015

Время: 04:55 (17:55 UTC)

Прогноз

Эта сводка был подготовлена 55 минут назад, в 17:00 UTC
Прогноз действительный с 25-го 18 UTC до 26-го 18 UTC
Ветер 12 Узел от восточно-юго-восточный
Видимость: 9000 м
Отдельные облака на высоте 2000 фута
Отдельные облака на высоте 1400 фута
Рассеянная облачность на высоте 1800 фута
ливневые дожди,

TAF: NVSS 251700Z 2518/2618 12012KT 9999 SCT020 INTER 2518/2524 9000 SHRA SCT014 BKN018

Метеонаблюдения и прогнозы для более 4000 аэропортов (сводки METAR и TAF).

Имеющиеся станции представлены на карте желтыми и красными точками.

Чтобы увидеть название станции, наведите на нее мышь.

Затем щелкните, чтобы увидеть метеонаблюдения и метеопрогнозы.

Управление картой: чтобы увеличить масштаб, щелкните зеленые кнопки с черным крестиком; чтобы уменьшить масштаб, щелкните зеленую кнопку с тире; для просмотра соседних карт щелкайте зеленые стрелки.


METAR-TAF: